Home PIREPS Pireps

Flight BEL172

  • Submitted By: Serge Morabito
  • Departure Airport: Cape Town International Airport (FACT)
  • Arrival Airport: Bruxelles National (EBBR)
  • Aircraft: YOUR CHOICE (YC)
  • Flight Time: 11.20
  • Date Submitted: 17/12/2016
  • Route: KODES UN186 ATUPI UM436 ANVAG UN187 VNA UR526 LV UH455 ARASI UG861 DLA UA604 AS UR978 BOD UM998 CSO UN854 MTL UM976 PIBAT UM129 EPL UM624 DIK UY37 BATTY
  • Status: Accepted
Flight Details
Gross Revenue:
(21 load / € 0.00 per unit
€ 0.00
Fuel Cost:
(96247 fuel used @ 0 / unit)
€ 0.00

Additional Log Information:

View Log

Aircraft Used in flight is SSG B748-Inter_V1.5 Lufthansa
13:32 Brakes are On
13:35 Brakes are Released
13:39 Brakes are On
13:40 Brakes are Released
13:45 Brakes are On
13:45 Brakes are Released
13:46 You Took off @ 176 Knots and Flaps at Position 5
Departure Weather
FACT 171200Z 18020KT CAVOK 25/16 Q1013 NOSIGrn
13:46 Landing Gear Up @ 182 Knots and 220 Feet
13:47 Below FL100 you need to turn on the landing lights
13:47 You exceeded maximum bank angle
00:35 Landing Gear Down @ 173 Knots and 3130 Feet
00:39 You Landed @ 142 Knots and with -450 Vertical Speed
Arrival Weather
EBBR 172320Z 21005KT 2300 BR BKN013 06/05 Q1038 NOSIGrn
00:40 Brakes are On
00:40 Brakes are Released
00:40 Brakes are On
00:40 Brakes are Released
00:40 Brakes are On
00:42 Brakes are Released
00:46 Brakes are On
00:46 Brakes are Released
00:48 Brakes are On
00:48 Brakes are Released
00:49 Brakes are On
00:49 Brakes are Released
00:49 Brakes are On
00:50 Brakes are Released
00:50 Brakes are On
00:52 Brussels Bel-Track1.0.1.2

Route Map

Corporate About Us Our Team Vacancies Information Fleet Route Network Rules and Regulations Operations Flight Schedules Event Center Tours Partners IVAO Vatsim Acars dev FSCB

fb Users Online Belgium John Smits,
1 Pilot(s) and 120 Guest(s) Online
CMS by phpVMS - Design by Crazycreatives.com - Copyright © 2019 - Brussels Airlines Virtual